sensor_id;sensor_type;location;lat;lon;timestamp;P1;durP1;ratioP1;P2;durP2;ratioP2
26588;SDS011;14235;48.532;8.722;2022-07-23T00:00:08;5.32;;;4.68;;
26588;SDS011;14235;48.532;8.722;2022-07-23T00:02:34;5.43;;;5.05;;
26588;SDS011;14235;48.532;8.722;2022-07-23T00:04:59;5.05;;;4.65;;
26588;SDS011;14235;48.532;8.722;2022-07-23T00:07:25;5.50;;;5.10;;
26588;SDS011;14235;48.532;8.722;2022-07-23T00:09:51;5.18;;;4.82;;
26588;SDS011;14235;48.532;8.722;2022-07-23T00:12:16;5.60;;;5.07;;
26588;SDS011;14235;48.532;8.722;2022-07-23T00:14:42;4.50;;;4.20;;
26588;SDS011;14235;48.532;8.722;2022-07-23T00:17:07;4.80;;;4.50;;
26588;SDS011;14235;48.532;8.722;2022-07-23T00:19:33;4.43;;;4.13;;
26588;SDS011;14235;48.532;8.722;2022-07-23T00:21:58;4.80;;;4.40;;
26588;SDS011;14235;48.532;8.722;2022-07-23T00:24:24;4.50;;;4.20;;
26588;SDS011;14235;48.532;8.722;2022-07-23T00:26:50;4.50;;;4.10;;
26588;SDS011;14235;48.532;8.722;2022-07-23T00:29:15;4.63;;;4.15;;
26588;SDS011;14235;48.532;8.722;2022-07-23T00:31:41;4.63;;;4.30;;
26588;SDS011;14235;48.532;8.722;2022-07-23T00:34:06;4.03;;;3.72;;
26588;SDS011;14235;48.532;8.722;2022-07-23T00:36:32;4.97;;;4.50;;
26588;SDS011;14235;48.532;8.722;2022-07-23T00:38:57;4.70;;;4.40;;
26588;SDS011;14235;48.532;8.722;2022-07-23T00:41:23;4.50;;;4.15;;
26588;SDS011;14235;48.532;8.722;2022-07-23T00:43:49;5.20;;;4.80;;
26588;SDS011;14235;48.532;8.722;2022-07-23T00:46:20;5.35;;;4.70;;
26588;SDS011;14235;48.532;8.722;2022-07-23T00:48:48;4.93;;;4.50;;
26588;SDS011;14235;48.532;8.722;2022-07-23T00:51:16;5.25;;;4.85;;
26588;SDS011;14235;48.532;8.722;2022-07-23T00:53:43;5.38;;;4.70;;
26588;SDS011;14235;48.532;8.722;2022-07-23T00:56:09;5.13;;;4.20;;
26588;SDS011;14235;48.532;8.722;2022-07-23T00:58:35;4.70;;;4.20;;
26588;SDS011;14235;48.532;8.722;2022-07-23T01:01:04;5.15;;;4.70;;
26588;SDS011;14235;48.532;8.722;2022-07-23T01:03:30;4.95;;;4.60;;
26588;SDS011;14235;48.532;8.722;2022-07-23T01:05:55;4.93;;;4.43;;
26588;SDS011;14235;48.532;8.722;2022-07-23T01:08:22;4.13;;;3.88;;
26588;SDS011;14235;48.532;8.722;2022-07-23T01:10:48;4.88;;;4.47;;
26588;SDS011;14235;48.532;8.722;2022-07-23T01:13:16;4.97;;;4.57;;
26588;SDS011;14235;48.532;8.722;2022-07-23T01:15:41;4.85;;;4.55;;
26588;SDS011;14235;48.532;8.722;2022-07-23T01:18:07;4.72;;;4.32;;
26588;SDS011;14235;48.532;8.722;2022-07-23T01:20:33;4.78;;;4.38;;
26588;SDS011;14235;48.532;8.722;2022-07-23T01:22:59;6.57;;;4.43;;
26588;SDS011;14235;48.532;8.722;2022-07-23T01:25:25;5.38;;;4.90;;
26588;SDS011;14235;48.532;8.722;2022-07-23T01:27:52;4.72;;;4.22;;
26588;SDS011;14235;48.532;8.722;2022-07-23T01:30:18;5.10;;;4.70;;
26588;SDS011;14235;48.532;8.722;2022-07-23T01:32:44;5.00;;;4.68;;
26588;SDS011;14235;48.532;8.722;2022-07-23T01:35:10;5.10;;;4.60;;
26588;SDS011;14235;48.532;8.722;2022-07-23T01:37:35;5.38;;;4.97;;
26588;SDS011;14235;48.532;8.722;2022-07-23T01:40:02;5.60;;;4.38;;
26588;SDS011;14235;48.532;8.722;2022-07-23T01:42:29;5.32;;;4.90;;
26588;SDS011;14235;48.532;8.722;2022-07-23T01:44:54;4.70;;;4.40;;
26588;SDS011;14235;48.532;8.722;2022-07-23T01:47:20;4.85;;;4.47;;
26588;SDS011;14235;48.532;8.722;2022-07-23T01:49:46;4.63;;;4.18;;
26588;SDS011;14235;48.532;8.722;2022-07-23T01:52:11;4.93;;;4.53;;
26588;SDS011;14235;48.532;8.722;2022-07-23T01:54:38;5.28;;;4.78;;
26588;SDS011;14235;48.532;8.722;2022-07-23T01:57:04;4.93;;;4.53;;
26588;SDS011;14235;48.532;8.722;2022-07-23T01:59:30;6.68;;;4.68;;
26588;SDS011;14235;48.532;8.722;2022-07-23T02:01:56;4.85;;;4.45;;
26588;SDS011;14235;48.532;8.722;2022-07-23T02:04:22;5.53;;;4.90;;
26588;SDS011;14235;48.532;8.722;2022-07-23T02:06:49;5.15;;;4.75;;
26588;SDS011;14235;48.532;8.722;2022-07-23T02:09:15;5.50;;;5.00;;
26588;SDS011;14235;48.532;8.722;2022-07-23T02:11:41;4.70;;;4.30;;
26588;SDS011;14235;48.532;8.722;2022-07-23T02:14:07;5.30;;;4.88;;
26588;SDS011;14235;48.532;8.722;2022-07-23T02:16:33;4.88;;;4.25;;
26588;SDS011;14235;48.532;8.722;2022-07-23T02:18:59;4.82;;;4.43;;
26588;SDS011;14235;48.532;8.722;2022-07-23T02:21:25;5.07;;;4.70;;
26588;SDS011;14235;48.532;8.722;2022-07-23T02:23:51;4.85;;;4.45;;
26588;SDS011;14235;48.532;8.722;2022-07-23T02:26:17;5.22;;;4.82;;
26588;SDS011;14235;48.532;8.722;2022-07-23T02:28:43;5.50;;;4.65;;
26588;SDS011;14235;48.532;8.722;2022-07-23T02:31:08;4.85;;;4.55;;
26588;SDS011;14235;48.532;8.722;2022-07-23T02:33:34;5.20;;;4.80;;
26588;SDS011;14235;48.532;8.722;2022-07-23T02:35:59;5.28;;;4.78;;
26588;SDS011;14235;48.532;8.722;2022-07-23T02:38:25;5.07;;;4.72;;
26588;SDS011;14235;48.532;8.722;2022-07-23T02:40:51;6.03;;;5.50;;
26588;SDS011;14235;48.532;8.722;2022-07-23T02:43:17;5.20;;;4.80;;
26588;SDS011;14235;48.532;8.722;2022-07-23T02:45:43;5.57;;;5.10;;
26588;SDS011;14235;48.532;8.722;2022-07-23T02:48:08;5.43;;;5.00;;
26588;SDS011;14235;48.532;8.722;2022-07-23T02:50:34;5.18;;;4.78;;
26588;SDS011;14235;48.532;8.722;2022-07-23T02:52:59;5.25;;;4.85;;
26588;SDS011;14235;48.532;8.722;2022-07-23T02:55:25;5.53;;;4.95;;
26588;SDS011;14235;48.532;8.722;2022-07-23T02:57:51;5.13;;;4.60;;
26588;SDS011;14235;48.532;8.722;2022-07-23T03:00:17;4.60;;;4.30;;
26588;SDS011;14235;48.532;8.722;2022-07-23T03:02:43;5.70;;;5.20;;
26588;SDS011;14235;48.532;8.722;2022-07-23T03:05:09;6.00;;;5.40;;
26588;SDS011;14235;48.532;8.722;2022-07-23T03:07:47;5.45;;;5.05;;
26588;SDS011;14235;48.532;8.722;2022-07-23T03:10:13;5.50;;;5.07;;
26588;SDS011;14235;48.532;8.722;2022-07-23T03:12:39;5.30;;;4.80;;
26588;SDS011;14235;48.532;8.722;2022-07-23T03:15:05;5.50;;;5.10;;
26588;SDS011;14235;48.532;8.722;2022-07-23T03:17:31;5.50;;;5.10;;
26588;SDS011;14235;48.532;8.722;2022-07-23T03:19:57;5.38;;;4.93;;
26588;SDS011;14235;48.532;8.722;2022-07-23T03:22:23;6.15;;;5.00;;
26588;SDS011;14235;48.532;8.722;2022-07-23T03:24:49;5.25;;;4.85;;
26588;SDS011;14235;48.532;8.722;2022-07-23T03:27:18;5.65;;;5.15;;
26588;SDS011;14235;48.532;8.722;2022-07-23T03:29:44;5.72;;;5.20;;
26588;SDS011;14235;48.532;8.722;2022-07-23T03:32:10;5.47;;;5.07;;
26588;SDS011;14235;48.532;8.722;2022-07-23T03:34:36;5.28;;;4.75;;
26588;SDS011;14235;48.532;8.722;2022-07-23T03:37:02;5.93;;;5.43;;
26588;SDS011;14235;48.532;8.722;2022-07-23T03:39:28;5.35;;;4.95;;
26588;SDS011;14235;48.532;8.722;2022-07-23T03:41:54;5.10;;;4.80;;
26588;SDS011;14235;48.532;8.722;2022-07-23T03:44:20;5.95;;;5.45;;
26588;SDS011;14235;48.532;8.722;2022-07-23T03:46:46;5.38;;;4.97;;
26588;SDS011;14235;48.532;8.722;2022-07-23T03:49:12;5.50;;;5.00;;
26588;SDS011;14235;48.532;8.722;2022-07-23T03:51:38;5.32;;;5.00;;
26588;SDS011;14235;48.532;8.722;2022-07-23T03:54:04;5.72;;;5.30;;
26588;SDS011;14235;48.532;8.722;2022-07-23T03:56:30;5.88;;;5.38;;
26588;SDS011;14235;48.532;8.722;2022-07-23T03:58:56;5.57;;;5.18;;
26588;SDS011;14235;48.532;8.722;2022-07-23T04:01:21;5.88;;;5.45;;
26588;SDS011;14235;48.532;8.722;2022-07-23T04:03:47;5.25;;;4.85;;
26588;SDS011;14235;48.532;8.722;2022-07-23T04:06:13;5.75;;;5.25;;
26588;SDS011;14235;48.532;8.722;2022-07-23T04:08:39;5.57;;;5.13;;
26588;SDS011;14235;48.532;8.722;2022-07-23T04:11:05;5.93;;;5.32;;
26588;SDS011;14235;48.532;8.722;2022-07-23T04:13:31;5.65;;;5.15;;
26588;SDS011;14235;48.532;8.722;2022-07-23T04:15:57;5.68;;;5.18;;
26588;SDS011;14235;48.532;8.722;2022-07-23T04:18:23;6.00;;;5.50;;
26588;SDS011;14235;48.532;8.722;2022-07-23T04:20:52;5.95;;;5.45;;
26588;SDS011;14235;48.532;8.722;2022-07-23T04:23:19;5.90;;;5.50;;
26588;SDS011;14235;48.532;8.722;2022-07-23T04:25:45;5.72;;;5.32;;
26588;SDS011;14235;48.532;8.722;2022-07-23T04:28:11;6.05;;;5.47;;
26588;SDS011;14235;48.532;8.722;2022-07-23T04:30:37;5.85;;;5.35;;
26588;SDS011;14235;48.532;8.722;2022-07-23T04:33:03;5.55;;;5.07;;
26588;SDS011;14235;48.532;8.722;2022-07-23T04:35:32;5.75;;;5.20;;
26588;SDS011;14235;48.532;8.722;2022-07-23T04:37:58;5.95;;;5.45;;
26588;SDS011;14235;48.532;8.722;2022-07-23T04:40:24;6.38;;;5.40;;
26588;SDS011;14235;48.532;8.722;2022-07-23T04:42:50;6.00;;;5.50;;
26588;SDS011;14235;48.532;8.722;2022-07-23T04:45:16;6.30;;;5.70;;
26588;SDS011;14235;48.532;8.722;2022-07-23T04:47:43;5.93;;;5.47;;
26588;SDS011;14235;48.532;8.722;2022-07-23T04:50:09;6.28;;;5.70;;
26588;SDS011;14235;48.532;8.722;2022-07-23T04:52:35;6.20;;;5.80;;
26588;SDS011;14235;48.532;8.722;2022-07-23T04:55:00;6.05;;;5.65;;
26588;SDS011;14235;48.532;8.722;2022-07-23T04:57:26;6.18;;;5.68;;
26588;SDS011;14235;48.532;8.722;2022-07-23T04:59:52;8.27;;;5.78;;
26588;SDS011;14235;48.532;8.722;2022-07-23T05:02:18;5.32;;;5.03;;
26588;SDS011;14235;48.532;8.722;2022-07-23T05:04:44;6.20;;;5.65;;
26588;SDS011;14235;48.532;8.722;2022-07-23T05:07:10;6.13;;;5.72;;
26588;SDS011;14235;48.532;8.722;2022-07-23T05:09:36;6.53;;;5.88;;
26588;SDS011;14235;48.532;8.722;2022-07-23T05:12:02;6.40;;;5.90;;
26588;SDS011;14235;48.532;8.722;2022-07-23T05:14:28;6.93;;;6.43;;
26588;SDS011;14235;48.532;8.722;2022-07-23T05:16:54;6.53;;;6.03;;
26588;SDS011;14235;48.532;8.722;2022-07-23T05:19:20;6.90;;;6.28;;
26588;SDS011;14235;48.532;8.722;2022-07-23T05:21:46;6.47;;;5.97;;
26588;SDS011;14235;48.532;8.722;2022-07-23T05:24:12;6.00;;;5.53;;
26588;SDS011;14235;48.532;8.722;2022-07-23T05:26:38;7.10;;;6.38;;
26588;SDS011;14235;48.532;8.722;2022-07-23T05:29:03;6.47;;;5.97;;
26588;SDS011;14235;48.532;8.722;2022-07-23T05:31:29;6.60;;;6.10;;
26588;SDS011;14235;48.532;8.722;2022-07-23T05:33:55;6.45;;;5.95;;
26588;SDS011;14235;48.532;8.722;2022-07-23T05:36:20;6.13;;;5.70;;
26588;SDS011;14235;48.532;8.722;2022-07-23T05:38:46;6.88;;;6.32;;
26588;SDS011;14235;48.532;8.722;2022-07-23T05:41:11;6.65;;;6.18;;
26588;SDS011;14235;48.532;8.722;2022-07-23T05:43:37;6.97;;;6.30;;
26588;SDS011;14235;48.532;8.722;2022-07-23T05:46:02;6.68;;;6.18;;
26588;SDS011;14235;48.532;8.722;2022-07-23T05:48:28;6.70;;;6.20;;
26588;SDS011;14235;48.532;8.722;2022-07-23T05:50:54;5.93;;;5.53;;
26588;SDS011;14235;48.532;8.722;2022-07-23T05:53:19;6.50;;;5.90;;
26588;SDS011;14235;48.532;8.722;2022-07-23T05:55:45;6.75;;;6.15;;
26588;SDS011;14235;48.532;8.722;2022-07-23T05:58:10;6.53;;;6.03;;
26588;SDS011;14235;48.532;8.722;2022-07-23T06:00:36;6.65;;;6.00;;
26588;SDS011;14235;48.532;8.722;2022-07-23T06:03:02;6.47;;;6.00;;
26588;SDS011;14235;48.532;8.722;2022-07-23T06:05:27;6.78;;;6.30;;
26588;SDS011;14235;48.532;8.722;2022-07-23T06:07:53;7.03;;;6.43;;
26588;SDS011;14235;48.532;8.722;2022-07-23T06:10:19;6.78;;;6.18;;
26588;SDS011;14235;48.532;8.722;2022-07-23T06:12:45;7.40;;;6.70;;
26588;SDS011;14235;48.532;8.722;2022-07-23T06:15:11;6.95;;;6.38;;
26588;SDS011;14235;48.532;8.722;2022-07-23T06:17:37;7.18;;;6.57;;
26588;SDS011;14235;48.532;8.722;2022-07-23T06:20:06;6.47;;;6.05;;
26588;SDS011;14235;48.532;8.722;2022-07-23T06:22:33;6.47;;;6.07;;
26588;SDS011;14235;48.532;8.722;2022-07-23T06:24:59;7.32;;;6.80;;
26588;SDS011;14235;48.532;8.722;2022-07-23T06:27:24;7.00;;;6.57;;
26588;SDS011;14235;48.532;8.722;2022-07-23T06:29:50;7.88;;;6.97;;
26588;SDS011;14235;48.532;8.722;2022-07-23T06:32:16;8.05;;;7.35;;
26588;SDS011;14235;48.532;8.722;2022-07-23T06:34:41;8.27;;;7.47;;
26588;SDS011;14235;48.532;8.722;2022-07-23T06:37:07;8.15;;;7.35;;
26588;SDS011;14235;48.532;8.722;2022-07-23T06:39:32;7.68;;;7.07;;
26588;SDS011;14235;48.532;8.722;2022-07-23T06:41:58;7.82;;;7.13;;
26588;SDS011;14235;48.532;8.722;2022-07-23T06:44:23;9.18;;;8.07;;
26588;SDS011;14235;48.532;8.722;2022-07-23T06:46:49;7.70;;;7.10;;
26588;SDS011;14235;48.532;8.722;2022-07-23T06:49:14;7.47;;;6.88;;
26588;SDS011;14235;48.532;8.722;2022-07-23T06:51:40;7.28;;;6.55;;
26588;SDS011;14235;48.532;8.722;2022-07-23T06:54:06;8.10;;;7.30;;
26588;SDS011;14235;48.532;8.722;2022-07-23T06:56:31;6.78;;;6.18;;
26588;SDS011;14235;48.532;8.722;2022-07-23T06:58:57;7.60;;;6.60;;
26588;SDS011;14235;48.532;8.722;2022-07-23T07:01:22;7.07;;;6.57;;
26588;SDS011;14235;48.532;8.722;2022-07-23T07:03:48;7.82;;;7.05;;
26588;SDS011;14235;48.532;8.722;2022-07-23T07:06:14;7.10;;;6.50;;
26588;SDS011;14235;48.532;8.722;2022-07-23T07:08:40;6.95;;;6.35;;
26588;SDS011;14235;48.532;8.722;2022-07-23T07:11:06;7.53;;;6.75;;
26588;SDS011;14235;48.532;8.722;2022-07-23T07:13:33;7.30;;;6.60;;
26588;SDS011;14235;48.532;8.722;2022-07-23T07:15:58;7.28;;;6.60;;
26588;SDS011;14235;48.532;8.722;2022-07-23T07:18:24;6.65;;;6.15;;
26588;SDS011;14235;48.532;8.722;2022-07-23T07:20:50;7.00;;;6.47;;
26588;SDS011;14235;48.532;8.722;2022-07-23T07:23:16;7.00;;;6.50;;
26588;SDS011;14235;48.532;8.722;2022-07-23T07:25:42;7.18;;;6.68;;
26588;SDS011;14235;48.532;8.722;2022-07-23T07:28:08;7.30;;;6.80;;
26588;SDS011;14235;48.532;8.722;2022-07-23T07:30:34;7.78;;;6.93;;
26588;SDS011;14235;48.532;8.722;2022-07-23T07:33:00;8.73;;;7.18;;
26588;SDS011;14235;48.532;8.722;2022-07-23T07:35:26;8.27;;;7.07;;
26588;SDS011;14235;48.532;8.722;2022-07-23T07:37:52;8.32;;;7.38;;
26588;SDS011;14235;48.532;8.722;2022-07-23T07:40:18;7.88;;;7.07;;
26588;SDS011;14235;48.532;8.722;2022-07-23T07:42:49;8.02;;;7.32;;
26588;SDS011;14235;48.532;8.722;2022-07-23T07:45:15;7.35;;;6.70;;
26588;SDS011;14235;48.532;8.722;2022-07-23T07:47:41;6.90;;;6.43;;
26588;SDS011;14235;48.532;8.722;2022-07-23T07:50:07;7.90;;;7.35;;
26588;SDS011;14235;48.532;8.722;2022-07-23T07:52:34;7.70;;;6.95;;
26588;SDS011;14235;48.532;8.722;2022-07-23T07:55:01;7.40;;;6.75;;
26588;SDS011;14235;48.532;8.722;2022-07-23T07:57:27;7.50;;;6.82;;
26588;SDS011;14235;48.532;8.722;2022-07-23T07:59:53;7.90;;;7.10;;
26588;SDS011;14235;48.532;8.722;2022-07-23T08:02:19;7.38;;;6.78;;
26588;SDS011;14235;48.532;8.722;2022-07-23T08:04:45;6.60;;;6.10;;
26588;SDS011;14235;48.532;8.722;2022-07-23T08:07:12;7.05;;;6.55;;
26588;SDS011;14235;48.532;8.722;2022-07-23T08:09:38;6.55;;;6.05;;
26588;SDS011;14235;48.532;8.722;2022-07-23T08:12:03;7.05;;;6.50;;
26588;SDS011;14235;48.532;8.722;2022-07-23T08:14:30;6.80;;;6.20;;
26588;SDS011;14235;48.532;8.722;2022-07-23T08:16:56;8.70;;;6.80;;
26588;SDS011;14235;48.532;8.722;2022-07-23T08:19:21;7.28;;;6.50;;
26588;SDS011;14235;48.532;8.722;2022-07-23T08:21:47;6.90;;;6.35;;
26588;SDS011;14235;48.532;8.722;2022-07-23T08:24:13;7.28;;;6.68;;
26588;SDS011;14235;48.532;8.722;2022-07-23T08:26:39;7.28;;;6.65;;
26588;SDS011;14235;48.532;8.722;2022-07-23T08:29:05;7.03;;;6.53;;
26588;SDS011;14235;48.532;8.722;2022-07-23T08:31:32;7.28;;;6.68;;
26588;SDS011;14235;48.532;8.722;2022-07-23T08:33:58;7.03;;;6.53;;
26588;SDS011;14235;48.532;8.722;2022-07-23T08:36:24;6.75;;;6.10;;
26588;SDS011;14235;48.532;8.722;2022-07-23T08:38:52;6.88;;;6.28;;
26588;SDS011;14235;48.532;8.722;2022-07-23T08:41:19;6.35;;;5.90;;
26588;SDS011;14235;48.532;8.722;2022-07-23T08:43:45;7.00;;;6.40;;
26588;SDS011;14235;48.532;8.722;2022-07-23T08:46:11;7.28;;;6.78;;
26588;SDS011;14235;48.532;8.722;2022-07-23T08:48:39;8.27;;;6.70;;
26588;SDS011;14235;48.532;8.722;2022-07-23T08:51:05;6.63;;;6.03;;
26588;SDS011;14235;48.532;8.722;2022-07-23T08:53:33;6.57;;;6.07;;
26588;SDS011;14235;48.532;8.722;2022-07-23T08:56:01;7.10;;;6.60;;
26588;SDS011;14235;48.532;8.722;2022-07-23T08:58:28;7.13;;;6.53;;
26588;SDS011;14235;48.532;8.722;2022-07-23T09:00:55;7.10;;;6.60;;
26588;SDS011;14235;48.532;8.722;2022-07-23T09:03:22;6.85;;;6.25;;
26588;SDS011;14235;48.532;8.722;2022-07-23T09:05:51;6.60;;;6.20;;
26588;SDS011;14235;48.532;8.722;2022-07-23T09:10:45;6.97;;;6.47;;
26588;SDS011;14235;48.532;8.722;2022-07-23T09:16:06;7.35;;;6.75;;
26588;SDS011;14235;48.532;8.722;2022-07-23T09:18:53;7.07;;;6.47;;
26588;SDS011;14235;48.532;8.722;2022-07-23T09:24:00;7.35;;;6.75;;
26588;SDS011;14235;48.532;8.722;2022-07-23T09:26:28;8.02;;;6.70;;
26588;SDS011;14235;48.532;8.722;2022-07-23T09:32:13;7.65;;;6.95;;
26588;SDS011;14235;48.532;8.722;2022-07-23T09:34:21;7.78;;;7.07;;
26588;SDS011;14235;48.532;8.722;2022-07-23T09:36:49;7.47;;;6.82;;
26588;SDS011;14235;48.532;8.722;2022-07-23T09:39:22;7.82;;;7.13;;
26588;SDS011;14235;48.532;8.722;2022-07-23T09:41:54;7.05;;;6.55;;
26588;SDS011;14235;48.532;8.722;2022-07-23T09:44:20;7.45;;;6.95;;
26588;SDS011;14235;48.532;8.722;2022-07-23T09:46:47;7.60;;;7.10;;
26588;SDS011;14235;48.532;8.722;2022-07-23T09:51:45;7.40;;;6.75;;
26588;SDS011;14235;48.532;8.722;2022-07-23T09:54:25;6.93;;;6.43;;
26588;SDS011;14235;48.532;8.722;2022-07-23T09:56:53;6.70;;;6.20;;
26588;SDS011;14235;48.532;8.722;2022-07-23T09:59:22;7.10;;;6.50;;
26588;SDS011;14235;48.532;8.722;2022-07-23T10:01:50;6.65;;;6.25;;
26588;SDS011;14235;48.532;8.722;2022-07-23T10:04:16;6.85;;;6.45;;
26588;SDS011;14235;48.532;8.722;2022-07-23T10:06:43;7.00;;;6.50;;
26588;SDS011;14235;48.532;8.722;2022-07-23T10:09:10;6.93;;;6.32;;
26588;SDS011;14235;48.532;8.722;2022-07-23T10:11:37;7.10;;;6.60;;
26588;SDS011;14235;48.532;8.722;2022-07-23T10:14:03;7.28;;;6.65;;
26588;SDS011;14235;48.532;8.722;2022-07-23T10:16:30;6.90;;;6.30;;
26588;SDS011;14235;48.532;8.722;2022-07-23T10:18:56;6.72;;;6.15;;
26588;SDS011;14235;48.532;8.722;2022-07-23T10:21:27;7.15;;;6.38;;
26588;SDS011;14235;48.532;8.722;2022-07-23T10:30:03;6.70;;;6.20;;
26588;SDS011;14235;48.532;8.722;2022-07-23T10:32:45;7.57;;;6.65;;
26588;SDS011;14235;48.532;8.722;2022-07-23T10:35:37;7.22;;;6.65;;
26588;SDS011;14235;48.532;8.722;2022-07-23T10:38:16;6.93;;;6.40;;
26588;SDS011;14235;48.532;8.722;2022-07-23T10:41:01;6.80;;;6.32;;
26588;SDS011;14235;48.532;8.722;2022-07-23T10:43:28;7.35;;;6.82;;
26588;SDS011;14235;48.532;8.722;2022-07-23T10:45:55;6.85;;;6.20;;
26588;SDS011;14235;48.532;8.722;2022-07-23T10:48:41;6.05;;;5.65;;
26588;SDS011;14235;48.532;8.722;2022-07-23T10:53:54;6.53;;;6.03;;
26588;SDS011;14235;48.532;8.722;2022-07-23T10:59:15;6.10;;;5.70;;
26588;SDS011;14235;48.532;8.722;2022-07-23T11:01:41;6.75;;;6.28;;
26588;SDS011;14235;48.532;8.722;2022-07-23T11:04:06;6.78;;;6.18;;
26588;SDS011;14235;48.532;8.722;2022-07-23T11:09:41;7.80;;;6.38;;
26588;SDS011;14235;48.532;8.722;2022-07-23T11:17:25;6.65;;;6.20;;
26588;SDS011;14235;48.532;8.722;2022-07-23T11:25:13;6.63;;;6.22;;
26588;SDS011;14235;48.532;8.722;2022-07-23T11:27:43;6.13;;;5.72;;
26588;SDS011;14235;48.532;8.722;2022-07-23T11:30:10;6.85;;;6.25;;
26588;SDS011;14235;48.532;8.722;2022-07-23T11:32:37;6.60;;;6.10;;
26588;SDS011;14235;48.532;8.722;2022-07-23T11:37:47;6.35;;;5.95;;
26588;SDS011;14235;48.532;8.722;2022-07-23T11:40:14;6.63;;;6.10;;
26588;SDS011;14235;48.532;8.722;2022-07-23T11:42:56;6.57;;;6.07;;
26588;SDS011;14235;48.532;8.722;2022-07-23T11:45:23;6.80;;;6.32;;
26588;SDS011;14235;48.532;8.722;2022-07-23T11:47:49;6.50;;;6.03;;
26588;SDS011;14235;48.532;8.722;2022-07-23T11:50:15;7.18;;;6.47;;
26588;SDS011;14235;48.532;8.722;2022-07-23T11:52:41;6.90;;;6.38;;
26588;SDS011;14235;48.532;8.722;2022-07-23T11:55:09;6.28;;;5.88;;
26588;SDS011;14235;48.532;8.722;2022-07-23T11:57:36;6.13;;;5.75;;
26588;SDS011;14235;48.532;8.722;2022-07-23T12:02:28;6.57;;;6.18;;
26588;SDS011;14235;48.532;8.722;2022-07-23T12:04:54;6.70;;;6.10;;
26588;SDS011;14235;48.532;8.722;2022-07-23T12:09:52;6.72;;;6.15;;
26588;SDS011;14235;48.532;8.722;2022-07-23T12:12:18;6.38;;;5.88;;
26588;SDS011;14235;48.532;8.722;2022-07-23T12:14:48;6.65;;;6.15;;
26588;SDS011;14235;48.532;8.722;2022-07-23T12:17:14;6.25;;;5.75;;
26588;SDS011;14235;48.532;8.722;2022-07-23T12:19:41;6.65;;;5.97;;
26588;SDS011;14235;48.532;8.722;2022-07-23T12:22:07;6.50;;;6.00;;
26588;SDS011;14235;48.532;8.722;2022-07-23T12:24:52;6.22;;;5.75;;
26588;SDS011;14235;48.532;8.722;2022-07-23T12:27:20;6.90;;;6.30;;
26588;SDS011;14235;48.532;8.722;2022-07-23T12:29:46;6.18;;;5.68;;
26588;SDS011;14235;48.532;8.722;2022-07-23T12:32:25;6.80;;;6.32;;
26588;SDS011;14235;48.532;8.722;2022-07-23T12:35:01;6.50;;;6.00;;
26588;SDS011;14235;48.532;8.722;2022-07-23T12:37:29;6.40;;;6.00;;
26588;SDS011;14235;48.532;8.722;2022-07-23T12:39:55;6.63;;;6.13;;
26588;SDS011;14235;48.532;8.722;2022-07-23T12:42:21;7.45;;;5.97;;
26588;SDS011;14235;48.532;8.722;2022-07-23T12:45:22;6.47;;;5.97;;
26588;SDS011;14235;48.532;8.722;2022-07-23T12:55:58;6.32;;;5.93;;
26588;SDS011;14235;48.532;8.722;2022-07-23T12:58:24;6.95;;;6.32;;
26588;SDS011;14235;48.532;8.722;2022-07-23T13:01:00;6.95;;;6.22;;
26588;SDS011;14235;48.532;8.722;2022-07-23T13:03:31;6.50;;;6.05;;
26588;SDS011;14235;48.532;8.722;2022-07-23T13:05:57;6.68;;;6.18;;
26588;SDS011;14235;48.532;8.722;2022-07-23T13:08:25;6.40;;;6.00;;
26588;SDS011;14235;48.532;8.722;2022-07-23T13:10:51;6.40;;;6.00;;
26588;SDS011;14235;48.532;8.722;2022-07-23T13:13:20;7.25;;;6.68;;
26588;SDS011;14235;48.532;8.722;2022-07-23T13:15:46;6.70;;;6.18;;
26588;SDS011;14235;48.532;8.722;2022-07-23T13:18:12;7.18;;;6.47;;
26588;SDS011;14235;48.532;8.722;2022-07-23T13:20:38;7.07;;;6.57;;
26588;SDS011;14235;48.532;8.722;2022-07-23T13:23:05;6.53;;;6.00;;
26588;SDS011;14235;48.532;8.722;2022-07-23T13:25:31;6.65;;;6.15;;
26588;SDS011;14235;48.532;8.722;2022-07-23T13:27:57;7.15;;;6.63;;
26588;SDS011;14235;48.532;8.722;2022-07-23T13:30:23;6.72;;;6.22;;
26588;SDS011;14235;48.532;8.722;2022-07-23T13:32:49;7.05;;;6.30;;
26588;SDS011;14235;48.532;8.722;2022-07-23T13:35:15;7.32;;;6.72;;
26588;SDS011;14235;48.532;8.722;2022-07-23T13:37:41;6.85;;;6.25;;
26588;SDS011;14235;48.532;8.722;2022-07-23T13:40:07;6.40;;;5.90;;
26588;SDS011;14235;48.532;8.722;2022-07-23T13:42:33;6.30;;;5.82;;
26588;SDS011;14235;48.532;8.722;2022-07-23T13:44:59;6.43;;;5.93;;
26588;SDS011;14235;48.532;8.722;2022-07-23T13:47:25;7.15;;;6.57;;
26588;SDS011;14235;48.532;8.722;2022-07-23T13:49:51;6.88;;;6.38;;
26588;SDS011;14235;48.532;8.722;2022-07-23T13:52:17;6.60;;;6.10;;
26588;SDS011;14235;48.532;8.722;2022-07-23T13:54:43;7.15;;;6.55;;
26588;SDS011;14235;48.532;8.722;2022-07-23T13:57:09;7.03;;;6.40;;
26588;SDS011;14235;48.532;8.722;2022-07-23T13:59:35;6.78;;;6.25;;
26588;SDS011;14235;48.532;8.722;2022-07-23T14:02:02;6.38;;;5.88;;
26588;SDS011;14235;48.532;8.722;2022-07-23T14:04:28;6.97;;;6.30;;
26588;SDS011;14235;48.532;8.722;2022-07-23T14:06:54;6.40;;;5.90;;
26588;SDS011;14235;48.532;8.722;2022-07-23T14:09:20;7.05;;;6.50;;
26588;SDS011;14235;48.532;8.722;2022-07-23T14:11:47;7.38;;;6.68;;
26588;SDS011;14235;48.532;8.722;2022-07-23T14:14:13;6.65;;;6.10;;
26588;SDS011;14235;48.532;8.722;2022-07-23T14:16:39;6.53;;;6.03;;
26588;SDS011;14235;48.532;8.722;2022-07-23T14:19:05;6.88;;;6.38;;
26588;SDS011;14235;48.532;8.722;2022-07-23T14:21:31;7.03;;;6.40;;
26588;SDS011;14235;48.532;8.722;2022-07-23T14:23:57;7.25;;;6.70;;
26588;SDS011;14235;48.532;8.722;2022-07-23T14:26:22;6.95;;;6.45;;
26588;SDS011;14235;48.532;8.722;2022-07-23T14:28:49;7.13;;;6.53;;
26588;SDS011;14235;48.532;8.722;2022-07-23T14:31:15;7.00;;;6.50;;
26588;SDS011;14235;48.532;8.722;2022-07-23T14:33:41;7.20;;;6.63;;
26588;SDS011;14235;48.532;8.722;2022-07-23T14:36:06;6.75;;;6.25;;
26588;SDS011;14235;48.532;8.722;2022-07-23T14:38:32;6.97;;;6.47;;
26588;SDS011;14235;48.532;8.722;2022-07-23T14:40:58;6.63;;;6.07;;
26588;SDS011;14235;48.532;8.722;2022-07-23T14:43:24;6.75;;;6.28;;
26588;SDS011;14235;48.532;8.722;2022-07-23T14:45:50;7.07;;;6.43;;
26588;SDS011;14235;48.532;8.722;2022-07-23T14:48:16;7.07;;;6.47;;
26588;SDS011;14235;48.532;8.722;2022-07-23T14:50:41;6.88;;;6.30;;
26588;SDS011;14235;48.532;8.722;2022-07-23T14:53:07;7.18;;;6.57;;
26588;SDS011;14235;48.532;8.722;2022-07-23T14:55:33;7.05;;;6.55;;
26588;SDS011;14235;48.532;8.722;2022-07-23T14:57:59;6.60;;;6.20;;
26588;SDS011;14235;48.532;8.722;2022-07-23T15:00:24;6.65;;;6.25;;
26588;SDS011;14235;48.532;8.722;2022-07-23T15:02:50;6.63;;;6.18;;
26588;SDS011;14235;48.532;8.722;2022-07-23T15:05:17;7.07;;;6.47;;
26588;SDS011;14235;48.532;8.722;2022-07-23T15:07:43;6.68;;;6.07;;
26588;SDS011;14235;48.532;8.722;2022-07-23T15:10:08;6.57;;;6.00;;
26588;SDS011;14235;48.532;8.722;2022-07-23T15:12:34;6.53;;;6.03;;
26588;SDS011;14235;48.532;8.722;2022-07-23T15:14:59;6.72;;;6.18;;
26588;SDS011;14235;48.532;8.722;2022-07-23T15:17:26;6.63;;;6.13;;
26588;SDS011;14235;48.532;8.722;2022-07-23T15:19:52;6.40;;;5.95;;
26588;SDS011;14235;48.532;8.722;2022-07-23T15:22:18;6.28;;;5.82;;
26588;SDS011;14235;48.532;8.722;2022-07-23T15:24:44;6.30;;;5.80;;
26588;SDS011;14235;48.532;8.722;2022-07-23T15:27:10;6.28;;;5.40;;
26588;SDS011;14235;48.532;8.722;2022-07-23T15:29:36;6.22;;;5.82;;
26588;SDS011;14235;48.532;8.722;2022-07-23T15:32:02;5.75;;;5.38;;
26588;SDS011;14235;48.532;8.722;2022-07-23T15:34:27;6.18;;;5.65;;
26588;SDS011;14235;48.532;8.722;2022-07-23T15:36:53;6.10;;;5.70;;
26588;SDS011;14235;48.532;8.722;2022-07-23T15:39:19;6.90;;;6.25;;